Página principal
METAR-TAF:

METAR-TAF

Aeroportos :

Porto Santo, Portugal

Aeroporto do Porto Santo

latitude: 33-04N, longitude: 016-21W, altura: 97 m

Observação actual do tempo

O boletim foi feito há 39 minutos, às 09:30 UTC
Vento 6 kt de es-nordeste, variando entre norte e es-sudeste
Temperatura 22°C
Humidade 78%
Pressão 1018 hPa
Visibilidade 10 km ou mais
Nuvens fragmentadasa uma altura de 1200 ft

METAR: LPPS 230930Z 07006KT 360V110 9999 BKN012 22/18 Q1018

Hora: 11:09 (10:09 UTC)

Previsão

O boletim foi feito há 5 horas e 9 minutos, às 05:00 UTC
Previsão válida de 23 às 06 UTC a 24 às 12 UTC
Vento 12 kt de nor-nordeste
Visibilidade 10 km ou mais
Nuvens dispersasa uma altura de 1200 ft
Probabilidade 30% :
Temporariamente
de 23 às 06 UTC a 23 às 09 UTC
Nuvens fragmentadasa uma altura de 1000 ft

TAF: LPPS 230500Z 2306/2412 02012KT 9999 SCT012 PROB30 TEMPO 2306/2309 BKN010

Observações e previsões do tempo de mais de 4000 aeroportos (mensagens METAR e TAF).

As estações disponíveis são os pontos amarelos e vermelhos sobre o mapa.

Mova o rato sobre o mapa para ver o nome da estação.

Depois clique no ponto para visualizar as observações e previsões meteorológicas.

Para alterar o mapa : clique nos botões verdes com uma cruz preta para aumentar o zoom; no botão verde com uma pitada de zoom; ou nas setas verdes para mapas adjacentes.


METAR-TAF: